Terminal Aerodrome Forecast
Issued by NWS Upton, NY

Home | Current Version | Previous Version | Text Only | Print | Product List | Glossary On
Versions: 1 2 3 4 5 6 7 8 9 10 11 12 13 14 15 16 17 18 19 20 21 22 23 24 25 26 27 28 29 30 31 32 33 34
915
FTUS41 KOKX 290221 AAA
TAFLGA
TAF AMD
KLGA 290221Z 2902/2924 24005KT P6SM VCSH SCT040 BKN090
     FM290500 20004KT 6SM SHRA SCT020 OVC050
     FM290700 10006KT 4SM SHRA SCT006 OVC015
      TEMPO 2908/2910 2SM TSRA OVC006CB
     FM291000 10010G18KT 2SM +SHRA BR FEW006 OVC012
      TEMPO 2910/2914 1SM TSRA OVC006CB
     FM291500 03012G20KT 5SM -RA BR OVC015
     FM292000 01012KT P6SM BKN040=

USA.gov is the U.S. government's official web portal to all federal, state and local government web resources and services.